Time;durP1;ratioP1;P1;durP2;ratioP2;P2;SDS_P1;SDS_P2;PMS_P1;PMS_P2;Temp;Humidity;BMP_temperature;BMP_pressure;BME280_temperature;BME280_humidity;BME280_pressure;Samples;Min_cycle;Max_cycle;Signal;HPM_P1;HPM_P2
2022/01/25 00:08:54;;;;;;;30.73;17.50;;;;;;;4.19;75.69;102953.25;5067412;28;20044;-69
2022/01/25 00:25:45;;;;;;;31.70;18.05;;;;;;;4.36;75.99;102952.59;5063192;28;20482;-68
2022/01/25 00:28:20;;;;;;;27.75;17.60;;;;;;;4.40;75.71;102944.53;5054632;28;20041;-68
2022/01/25 00:31:20;;;;;;;30.33;17.05;;;;;;;4.43;75.52;102951.44;5047595;28;20043;-68
2022/01/25 00:33:35;;;;;;;28.80;17.65;;;;;;;4.43;75.54;102960.16;5050708;28;20040;-68
2022/01/25 00:36:05;;;;;;;32.22;16.90;;;;;;;4.38;75.79;102950.75;5053320;28;20037;-67
2022/01/25 00:38:32;;;;;;;29.05;17.02;;;;;;;4.39;75.55;102963.84;5055403;28;20049;-68
2022/01/25 00:40:59;;;;;;;27.35;17.85;;;;;;;4.26;76.18;102964.38;5055084;28;20099;-68
2022/01/25 00:43:27;;;;;;;29.67;17.85;;;;;;;4.27;75.89;102958.22;5037005;28;20485;-68
2022/01/25 00:45:58;;;;;;;27.08;17.80;;;;;;;4.25;76.70;102957.41;5053645;28;20056;-68
2022/01/25 00:54:30;;;;;;;30.08;18.92;;;;;;;4.23;76.26;102952.22;5074372;27;20888;-70
2022/01/25 00:56:57;;;;;;;36.00;18.65;;;;;;;4.26;76.38;102954.72;5069587;28;20086;-69
2022/01/25 00:59:26;;;;;;;30.52;19.00;;;;;;;4.30;75.77;102947.59;5069974;28;20040;-70
2022/01/25 01:01:56;;;;;;;33.17;18.63;;;;;;;4.35;75.91;102957.00;5069528;28;20072;-69
2022/01/25 01:04:24;;;;;;;28.88;18.70;;;;;;;4.29;76.18;102938.81;5067883;28;20052;-69
2022/01/25 01:06:51;;;;;;;33.83;17.98;;;;;;;4.35;75.77;102949.13;5067385;28;20052;-69
2022/01/25 01:09:21;;;;;;;28.67;18.13;;;;;;;4.41;75.51;102953.28;5067505;28;20063;-69
2022/01/25 01:11:59;;;;;;;33.00;19.27;;;;;;;4.33;75.95;102957.97;5069792;28;20079;-67
2022/01/25 01:17:37;;;;;;;31.25;17.38;;;;;;;4.28;76.48;102968.66;5098341;28;20052;-67
2022/01/25 01:31:19;;;;;;;27.13;16.98;;;;;;;4.25;76.77;102966.16;5102536;28;20049;-67
2022/01/25 01:37:02;;;;;;;26.52;15.55;;;;;;;4.32;76.95;102962.38;5066386;28;20509;-68
2022/01/25 01:42:49;;;;;;;27.42;14.95;;;;;;;4.22;76.72;102967.13;5086418;27;20409;-70
2022/01/25 01:45:06;;;;;;;26.27;14.77;;;;;;;4.27;76.65;102968.72;5089774;28;20067;-67
2022/01/25 01:47:43;;;;;;;27.75;14.73;;;;;;;4.28;76.51;102963.41;5053116;28;20045;-68
2022/01/25 01:50:15;;;;;;;30.40;15.18;;;;;;;4.35;76.62;102961.41;5049907;28;20108;-68
2022/01/25 01:52:42;;;;;;;27.65;15.65;;;;;;;4.32;76.38;102959.75;5052564;28;20045;-67
2022/01/25 01:55:09;;;;;;;28.83;15.88;;;;;;;4.25;77.05;102960.03;5068508;28;20102;-67
2022/01/25 01:57:36;;;;;;;26.42;16.60;;;;;;;4.18;77.18;102957.66;5069963;28;20115;-68
2022/01/25 02:00:05;;;;;;;29.35;16.90;;;;;;;4.15;77.36;102959.53;5069969;28;20037;-67
2022/01/25 02:02:48;;;;;;;30.67;17.08;;;;;;;4.23;76.84;102963.56;5075570;27;20382;-67
2022/01/25 02:05:15;;;;;;;37.00;17.30;;;;;;;4.22;77.02;102954.00;5069589;28;20396;-69
2022/01/25 02:07:42;;;;;;;31.23;17.45;;;;;;;4.25;77.43;102955.63;5069254;28;20040;-69
2022/01/25 02:10:10;;;;;;;28.20;17.02;;;;;;;4.30;76.76;102953.69;5070033;28;20044;-67
2022/01/25 02:12:37;;;;;;;29.50;16.70;;;;;;;4.30;77.04;102952.84;5068961;28;20067;-67
2022/01/25 02:15:04;;;;;;;29.00;16.48;;;;;;;4.28;76.98;102960.78;5068060;28;20496;-66
2022/01/25 02:23:17;;;;;;;29.60;16.05;;;;;;;4.17;77.36;102952.47;5069927;28;20049;-68
2022/01/25 02:25:46;;;;;;;31.83;17.20;;;;;;;4.16;77.19;102953.34;5069364;28;20045;-68
2022/01/25 02:28:13;;;;;;;30.77;17.35;;;;;;;4.18;76.78;102952.41;5069992;28;20106;-68
2022/01/25 02:30:41;;;;;;;31.67;17.63;;;;;;;4.21;76.98;102948.78;5063753;28;20041;-68
2022/01/25 02:33:08;;;;;;;32.17;17.02;;;;;;;4.20;76.68;102945.31;5068571;28;20045;-68
2022/01/25 02:35:35;;;;;;;28.80;17.83;;;;;;;4.09;77.15;102950.09;5068439;28;20492;-68
2022/01/25 02:38:03;;;;;;;33.75;17.67;;;;;;;4.19;76.78;102948.84;5069736;28;20091;-67
2022/01/25 02:40:29;;;;;;;35.50;19.05;;;;;;;4.11;77.05;102950.03;5052247;28;20040;-68
2022/01/25 02:42:56;;;;;;;37.42;18.30;;;;;;;4.16;77.09;102942.84;5068362;28;20051;-68
2022/01/25 02:45:30;;;;;;;32.85;17.83;;;;;;;4.16;77.36;102941.06;5064632;28;20037;-67
2022/01/25 02:50:45;;;;;;;31.92;18.35;;;;;;;4.20;77.11;102931.31;5069181;28;20037;-68
2022/01/25 02:53:11;;;;;;;33.55;17.63;;;;;;;4.26;76.74;102932.84;5050138;28;20091;-68
2022/01/25 02:55:39;;;;;;;32.58;18.25;;;;;;;4.22;76.76;102937.34;5048003;28;20067;-68
2022/01/25 02:58:08;;;;;;;43.65;19.33;;;;;;;4.14;77.05;102932.41;5049377;28;20045;-68
2022/01/25 03:00:35;;;;;;;35.05;18.63;;;;;;;4.22;76.52;102937.34;5049101;28;20045;-68
2022/01/25 03:03:02;;;;;;;36.17;18.90;;;;;;;4.19;76.86;102938.34;5053216;28;20500;-68
2022/01/25 03:05:28;;;;;;;33.55;19.20;;;;;;;4.28;76.93;102933.66;5047771;28;20116;-68
2022/01/25 03:07:57;;;;;;;44.33;19.85;;;;;;;4.27;76.67;102930.16;5047546;28;20045;-68
2022/01/25 03:10:34;;;;;;;34.50;18.35;;;;;;;4.22;76.43;102924.22;5048934;28;20120;-68
2022/01/25 03:13:01;;;;;;;34.88;18.77;;;;;;;4.23;76.78;102924.16;5042195;28;20068;-68
2022/01/25 03:15:44;;;;;;;36.17;19.42;;;;;;;4.22;76.58;102925.09;5035423;28;20041;-68
2022/01/25 03:18:24;;;;;;;35.33;19.83;;;;;;;4.23;76.91;102923.31;5034564;28;20448;-68
2022/01/25 03:21:00;;;;;;;35.35;19.25;;;;;;;4.23;76.64;102929.41;5054445;28;20045;-69
2022/01/25 03:23:29;;;;;;;36.90;18.92;;;;;;;4.25;76.26;102925.88;5055646;28;20072;-68
2022/01/25 03:25:55;;;;;;;37.33;18.33;;;;;;;4.26;76.16;102924.94;5055067;28;20531;-68
2022/01/25 03:28:22;;;;;;;34.25;18.75;;;;;;;4.18;76.12;102920.88;5055456;28;20110;-68
2022/01/25 03:30:50;;;;;;;39.95;20.25;;;;;;;4.14;76.17;102924.50;5055454;28;20048;-68
2022/01/25 03:33:17;;;;;;;35.25;18.63;;;;;;;4.18;76.15;102917.38;5053575;28;20043;-68
2022/01/25 03:35:45;;;;;;;36.30;18.88;;;;;;;4.19;76.22;102922.56;5037302;28;20049;-68
2022/01/25 03:38:12;;;;;;;30.55;18.50;;;;;;;4.20;75.72;102920.78;5054430;28;20061;-68
2022/01/25 03:40:39;;;;;;;38.47;18.88;;;;;;;4.17;75.71;102910.44;5055134;28;20071;-69
2022/01/25 03:43:08;;;;;;;36.70;19.08;;;;;;;4.18;76.30;102910.38;5051647;28;20041;-68
2022/01/25 03:45:37;;;;;;;34.60;18.90;;;;;;;4.17;75.91;102910.44;5053334;28;20087;-68
2022/01/25 03:50:43;;;;;;;33.53;18.38;;;;;;;4.18;75.93;102906.88;5021495;28;20055;-69
2022/01/25 03:53:11;;;;;;;40.92;20.23;;;;;;;4.25;75.28;102910.13;5054950;28;20485;-68
2022/01/25 03:55:40;;;;;;;38.05;19.30;;;;;;;4.23;75.14;102913.66;5053342;28;20052;-69
2022/01/25 03:58:07;;;;;;;35.00;19.33;;;;;;;4.22;75.41;102909.31;5055432;28;20092;-68
2022/01/25 04:00:37;;;;;;;37.47;18.90;;;;;;;4.20;75.47;102912.91;5054657;28;20048;-68
2022/01/25 04:03:18;;;;;;;40.80;19.65;;;;;;;4.23;74.93;102903.13;5053510;28;20037;-68
2022/01/25 04:08:21;;;;;;;38.50;19.52;;;;;;;4.12;75.31;102902.69;5082120;27;20399;-70
2022/01/25 04:10:49;;;;;;;35.88;20.73;;;;;;;4.20;75.07;102905.03;5070748;28;20490;-69
2022/01/25 04:13:16;;;;;;;39.17;21.58;;;;;;;4.13;75.87;102904.44;5070278;28;20123;-69
2022/01/25 04:15:45;;;;;;;40.33;22.10;;;;;;;4.12;75.94;102902.69;5069950;28;20037;-69
2022/01/25 04:18:24;;;;;;;38.75;21.98;;;;;;;4.15;75.48;102904.38;5064410;28;20033;-70
2022/01/25 04:21:07;;;;;;;39.88;22.27;;;;;;;4.09;75.55;102904.59;5050229;28;20053;-69
2022/01/25 04:26:21;;;;;;;46.00;22.65;;;;;;;4.10;76.00;102901.06;5055181;28;20037;-70
2022/01/25 04:28:47;;;;;;;40.97;22.92;;;;;;;4.04;76.22;102897.75;5050748;28;20045;-70
2022/01/25 04:31:16;;;;;;;46.92;23.27;;;;;;;4.06;75.68;102902.94;5049847;28;20045;-69
2022/01/25 04:33:56;;;;;;;46.70;24.13;;;;;;;4.07;75.88;102902.03;5047115;28;20041;-69
2022/01/25 04:36:49;;;;;;;48.28;23.20;;;;;;;4.15;75.82;102905.22;5049609;28;20069;-69
2022/01/25 04:50:47;;;;;;;49.80;23.85;;;;;;;4.09;75.67;102894.09;5049322;28;20045;-70
2022/01/25 04:53:15;;;;;;;48.08;23.98;;;;;;;4.11;74.96;102890.50;5049304;28;20037;-70
2022/01/25 04:55:51;;;;;;;47.00;23.58;;;;;;;4.15;75.51;102899.13;5070345;28;20508;-69
2022/01/25 04:58:26;;;;;;;43.97;23.00;;;;;;;4.13;75.53;102893.94;5056574;28;20040;-68
2022/01/25 05:00:53;;;;;;;47.80;24.15;;;;;;;4.05;75.35;102888.09;5068202;28;20053;-68
2022/01/25 05:03:26;;;;;;;48.20;23.95;;;;;;;4.07;75.40;102888.03;5068961;28;20041;-67
2022/01/25 05:08:34;;;;;;;50.47;24.58;;;;;;;4.09;75.51;102883.56;5108816;27;20383;-68
2022/01/25 05:11:08;;;;;;;45.42;23.15;;;;;;;4.09;75.46;102884.44;5090642;28;20048;-68
2022/01/25 05:16:36;;;;;;;44.00;24.00;;;;;;;4.08;74.96;102881.88;5109525;28;20395;-68
2022/01/25 05:19:35;;;;;;;40.42;22.65;;;;;;;4.08;75.11;102887.13;5106218;28;20044;-67
2022/01/25 05:22:28;;;;;;;42.97;23.05;;;;;;;4.17;74.58;102885.00;5090053;28;20050;-68
2022/01/25 05:24:42;;;;;;;45.35;23.23;;;;;;;4.14;74.31;102884.25;5104367;28;20044;-68
2022/01/25 05:27:11;;;;;;;44.15;24.30;;;;;;;4.02;75.08;102888.19;5109821;28;20079;-68
2022/01/25 05:29:39;;;;;;;42.47;23.92;;;;;;;3.92;75.68;102889.50;5111413;28;20222;-68
2022/01/25 05:32:06;;;;;;;47.20;25.13;;;;;;;3.86;75.75;102901.09;5092735;27;20056;-68
2022/01/25 05:34:34;;;;;;;46.03;23.48;;;;;;;3.89;75.33;102898.31;5087009;28;20489;-68
2022/01/25 05:37:02;;;;;;;45.17;25.02;;;;;;;3.90;76.00;102899.19;5090010;28;20036;-68
2022/01/25 05:39:33;;;;;;;48.80;24.38;;;;;;;3.93;75.53;102893.81;5088651;28;20457;-68
2022/01/25 05:42:17;;;;;;;41.65;23.30;;;;;;;3.93;75.78;102889.44;5089183;28;20052;-69
2022/01/25 05:45:12;;;;;;;40.65;23.27;;;;;;;3.95;75.40;102889.38;5086365;28;20428;-68
2022/01/25 05:47:32;;;;;;;41.90;23.55;;;;;;;3.95;75.30;102884.97;5089487;28;20036;-68
2022/01/25 05:49:59;;;;;;;44.72;23.95;;;;;;;4.03;74.73;102888.16;5088847;28;20036;-69
2022/01/25 05:52:27;;;;;;;44.88;23.85;;;;;;;3.94;75.27;102882.41;5089742;28;20068;-68
2022/01/25 05:54:54;;;;;;;46.75;24.77;;;;;;;3.96;75.45;102894.56;5089553;28;20040;-68
2022/01/25 05:57:21;;;;;;;44.78;23.83;;;;;;;3.97;75.30;102892.81;5089508;28;20047;-69
2022/01/25 05:59:47;;;;;;;48.45;24.83;;;;;;;3.98;75.20;102886.63;5089513;28;20040;-68
2022/01/25 06:02:20;;;;;;;51.45;24.30;;;;;;;3.99;74.87;102883.94;5096954;28;20040;-69
2022/01/25 06:04:47;;;;;;;51.45;24.38;;;;;;;3.95;75.52;102884.97;5097428;28;20039;-69
2022/01/25 06:07:13;;;;;;;47.53;23.38;;;;;;;4.02;74.94;102885.56;5097234;28;20052;-68
2022/01/25 06:09:41;;;;;;;50.13;26.02;;;;;;;4.03;74.90;102876.78;5109144;28;20101;-68
2022/01/25 06:12:10;;;;;;;52.15;24.02;;;;;;;4.03;74.78;102880.28;5080994;28;20147;-68
2022/01/25 06:14:38;;;;;;;43.08;23.88;;;;;;;4.05;74.23;102877.59;5088195;28;20098;-69
2022/01/25 06:17:05;;;;;;;47.20;23.92;;;;;;;3.88;74.60;102885.28;5089137;28;20373;-69
2022/01/25 06:19:32;;;;;;;49.78;23.95;;;;;;;3.96;74.35;102891.94;5076197;28;20067;-68
2022/01/25 06:21:59;;;;;;;50.53;25.88;;;;;;;3.87;75.14;102888.81;5075590;28;20040;-68
2022/01/25 06:24:25;;;;;;;48.80;25.77;;;;;;;3.92;74.98;102892.13;5075424;28;20040;-68
2022/01/25 06:26:52;;;;;;;44.58;23.90;;;;;;;3.94;75.02;102891.13;5074368;28;20055;-68
2022/01/25 06:29:19;;;;;;;47.88;24.00;;;;;;;3.90;75.36;102897.41;5075217;28;20051;-68
2022/01/25 06:31:47;;;;;;;44.17;23.40;;;;;;;3.83;75.47;102880.19;5074239;28;20457;-68
2022/01/25 06:34:16;;;;;;;44.25;24.85;;;;;;;3.89;75.22;102889.59;5057811;28;20044;-68
2022/01/25 06:36:42;;;;;;;42.33;24.30;;;;;;;3.92;75.17;102897.38;5091962;28;20048;-69
2022/01/25 06:39:09;;;;;;;44.72;23.30;;;;;;;3.94;74.78;102898.16;5065609;28;20135;-68
2022/01/25 06:41:37;;;;;;;44.47;23.83;;;;;;;3.89;75.01;102886.97;5076134;28;20036;-68
2022/01/25 06:44:05;;;;;;;50.55;23.60;;;;;;;3.92;75.00;102895.59;5074428;28;20050;-68
2022/01/25 06:46:32;;;;;;;43.97;23.48;;;;;;;3.88;75.09;102896.63;5073802;28;20412;-68
2022/01/25 06:48:59;;;;;;;42.95;23.67;;;;;;;3.90;75.14;102900.03;5074893;28;20078;-68
2022/01/25 06:51:28;;;;;;;45.25;23.98;;;;;;;3.78;75.90;102905.75;5074751;28;20447;-68
2022/01/25 06:53:55;;;;;;;45.55;24.08;;;;;;;3.70;75.80;102905.19;5074765;28;20067;-67
2022/01/25 06:56:22;;;;;;;51.20;24.85;;;;;;;3.60;76.58;102905.53;5082407;28;20040;-68
2022/01/25 06:58:48;;;;;;;44.88;23.25;;;;;;;3.75;76.09;102908.50;5075011;28;20051;-70
2022/01/25 07:01:17;;;;;;;52.30;25.25;;;;;;;3.86;75.50;102908.97;5073641;28;20051;-67
2022/01/25 07:03:45;;;;;;;43.88;23.40;;;;;;;3.87;75.36;102909.81;5074621;28;20500;-67
2022/01/25 07:06:12;;;;;;;47.30;25.60;;;;;;;3.91;75.35;102912.28;5091050;28;20114;-68
2022/01/25 07:08:39;;;;;;;48.22;26.50;;;;;;;3.94;75.77;102913.91;5091851;28;20032;-68
2022/01/25 07:11:06;;;;;;;44.15;24.17;;;;;;;3.89;76.20;102908.81;5094878;28;20047;-68
2022/01/25 07:13:33;;;;;;;47.78;25.23;;;;;;;3.97;75.81;102912.03;5094804;28;20044;-68
2022/01/25 07:16:00;;;;;;;47.03;26.27;;;;;;;3.91;75.67;102901.78;5093154;28;20447;-68
2022/01/25 07:18:26;;;;;;;58.00;26.55;;;;;;;3.79;75.84;102905.69;5094745;28;20036;-69
2022/01/25 07:20:53;;;;;;;49.83;24.80;;;;;;;3.80;75.77;102903.91;5093373;28;20043;-69
2022/01/25 07:23:20;;;;;;;45.42;24.40;;;;;;;3.82;75.35;102902.97;5094545;28;20052;-69
2022/01/25 07:25:47;;;;;;;45.65;24.70;;;;;;;3.89;75.40;102895.69;5094735;28;20044;-69
2022/01/25 07:28:14;;;;;;;42.72;23.13;;;;;;;3.87;74.81;102892.28;5094500;28;20039;-69
2022/01/25 07:30:41;;;;;;;45.55;23.92;;;;;;;3.89;75.11;102890.44;5093365;28;20051;-69
2022/01/25 07:33:16;;;;;;;48.05;24.77;;;;;;;3.94;75.00;102896.38;5081790;28;20449;-69
2022/01/25 07:35:44;;;;;;;49.10;24.95;;;;;;;4.06;74.57;102891.56;5056740;28;20048;-69
2022/01/25 07:38:15;;;;;;;52.53;25.27;;;;;;;4.07;74.88;102898.53;5073259;28;20105;-69
2022/01/25 07:40:42;;;;;;;47.95;24.80;;;;;;;3.91;74.01;102901.78;5080887;28;20051;-69
2022/01/25 07:43:10;;;;;;;43.50;24.58;;;;;;;3.94;74.55;102901.63;5090595;28;20103;-69
2022/01/25 07:45:42;;;;;;;46.38;24.48;;;;;;;3.97;74.42;102898.06;5073977;28;20047;-69
2022/01/25 07:48:10;;;;;;;52.72;24.85;;;;;;;3.84;74.79;102901.13;5072341;28;20043;-70
2022/01/25 07:50:38;;;;;;;46.20;25.35;;;;;;;3.99;74.97;102890.97;5072979;28;20044;-68
2022/01/25 07:53:05;;;;;;;57.33;26.75;;;;;;;3.94;74.55;102896.38;5073801;28;20086;-69
2022/01/25 07:55:32;;;;;;;47.53;25.83;;;;;;;3.86;74.53;102887.94;5073546;28;20048;-69
2022/01/25 07:57:59;;;;;;;47.78;24.60;;;;;;;3.84;74.43;102898.50;5072375;28;20386;-69
2022/01/25 08:00:26;;;;;;;54.70;24.50;;;;;;;3.81;74.79;102901.25;5073287;28;20041;-70
2022/01/25 08:02:53;;;;;;;48.92;25.10;;;;;;;3.82;74.58;102907.34;5072564;28;20056;-69
2022/01/25 08:05:24;;;;;;;44.95;24.63;;;;;;;3.72;75.36;102904.22;5072437;28;20055;-69
2022/01/25 08:08:04;;;;;;;46.15;23.50;;;;;;;3.70;75.04;102910.44;5070574;28;20504;-69
2022/01/25 08:10:32;;;;;;;48.22;24.85;;;;;;;3.74;75.21;102905.00;5072304;28;20044;-69
2022/01/25 08:13:13;;;;;;;49.55;25.25;;;;;;;3.84;74.97;102914.25;5072486;28;20040;-69
2022/01/25 08:15:54;;;;;;;52.25;26.95;;;;;;;3.96;74.52;102909.47;5072189;28;20068;-69
2022/01/25 08:18:28;;;;;;;48.38;25.33;;;;;;;3.96;74.74;102918.19;5080083;28;20048;-69
2022/01/25 08:20:59;;;;;;;47.53;24.88;;;;;;;3.76;75.27;102910.22;5092554;28;20044;-69
2022/01/25 08:23:39;;;;;;;48.25;24.75;;;;;;;3.77;75.19;102919.81;5077829;28;20044;-69
2022/01/25 08:26:20;;;;;;;50.83;24.65;;;;;;;3.73;75.15;102916.44;5082161;28;20044;-69
2022/01/25 08:28:47;;;;;;;51.90;25.98;;;;;;;3.61;75.02;102915.09;5088321;28;20056;-70
2022/01/25 08:31:29;;;;;;;43.00;24.00;;;;;;;3.73;74.84;102916.44;5081262;28;20090;-70
2022/01/25 08:34:02;;;;;;;49.85;24.38;;;;;;;3.94;73.62;102919.16;5075677;28;20475;-70
2022/01/25 08:36:29;;;;;;;51.05;24.60;;;;;;;3.90;73.81;102920.22;5081953;28;20465;-70
2022/01/25 08:39:05;;;;;;;46.95;24.55;;;;;;;3.62;75.11;102918.56;5078088;28;20038;-69
2022/01/25 08:41:34;;;;;;;49.63;25.65;;;;;;;3.59;75.25;102916.94;5075185;28;20056;-70
2022/01/25 08:44:14;;;;;;;50.70;26.55;;;;;;;3.75;75.55;102909.34;5088238;28;20036;-69
2022/01/25 08:46:41;;;;;;;55.30;25.92;;;;;;;3.74;75.14;102918.13;5063342;28;20052;-68
2022/01/25 08:49:09;;;;;;;50.00;26.20;;;;;;;3.80;75.46;102917.03;5065133;28;20074;-65
2022/01/25 08:51:39;;;;;;;53.08;26.58;;;;;;;3.96;74.56;102917.34;5083886;28;20124;-64
2022/01/25 08:54:20;;;;;;;53.35;26.15;;;;;;;3.81;75.03;102918.78;5078696;28;20052;-65
2022/01/25 08:56:53;;;;;;;51.17;23.85;;;;;;;3.58;75.21;102923.06;5087477;28;20383;-68
2022/01/25 08:59:34;;;;;;;51.90;24.85;;;;;;;3.59;75.47;102923.94;5046195;28;20048;-68
2022/01/25 09:02:02;;;;;;;50.03;25.00;;;;;;;3.74;75.21;102930.41;5087660;28;20036;-68
2022/01/25 09:04:28;;;;;;;51.17;25.50;;;;;;;3.65;75.42;102935.06;5078760;28;20064;-69
2022/01/25 09:06:55;;;;;;;49.63;24.75;;;;;;;3.64;75.10;102935.16;5077988;28;20078;-69
2022/01/25 09:09:23;;;;;;;48.38;24.77;;;;;;;3.61;75.84;102938.72;5080439;28;20492;-69
2022/01/25 09:11:49;;;;;;;52.65;25.10;;;;;;;3.68;74.93;102930.66;5089670;28;20551;-69
2022/01/25 09:14:16;;;;;;;48.83;25.10;;;;;;;3.72;75.25;102945.38;5087814;28;20040;-69
2022/01/25 09:16:43;;;;;;;52.85;27.30;;;;;;;3.71;75.39;102943.63;5080496;28;20157;-68
2022/01/25 09:19:11;;;;;;;49.70;25.23;;;;;;;3.85;74.57;102946.63;5084209;28;20043;-69
2022/01/25 09:21:37;;;;;;;56.22;25.55;;;;;;;3.89;74.29;102950.00;5074489;28;20078;-68
2022/01/25 09:24:05;;;;;;;50.38;25.67;;;;;;;3.83;74.47;102949.31;5073689;28;20447;-69
2022/01/25 09:26:32;;;;;;;50.42;24.55;;;;;;;3.78;74.45;102945.13;5076644;28;20036;-68
2022/01/25 09:28:59;;;;;;;56.17;25.48;;;;;;;3.87;74.82;102952.66;5083711;28;20499;-69
2022/01/25 09:31:27;;;;;;;47.80;24.40;;;;;;;3.81;74.80;102958.16;5081960;28;20041;-69
2022/01/25 09:33:55;;;;;;;45.65;23.70;;;;;;;3.89;74.11;102958.72;5088527;28;20531;-69
2022/01/25 09:36:24;;;;;;;50.08;24.27;;;;;;;3.70;74.42;102955.91;5084167;28;20048;-69
2022/01/25 09:38:53;;;;;;;59.22;25.83;;;;;;;3.82;74.31;102965.09;5087776;28;20032;-69
2022/01/25 09:41:20;;;;;;;53.58;25.73;;;;;;;3.87;73.96;102957.91;5084271;28;20041;-68
2022/01/25 09:43:47;;;;;;;49.83;25.65;;;;;;;3.94;74.07;102959.41;5082435;28;20037;-69
2022/01/25 09:46:14;;;;;;;48.38;25.52;;;;;;;3.98;73.81;102950.53;5082247;28;20071;-68
2022/01/25 09:48:41;;;;;;;47.58;24.92;;;;;;;4.01;73.68;102955.66;5083887;28;20044;-68
2022/01/25 09:51:10;;;;;;;50.58;24.33;;;;;;;4.06;73.66;102957.22;5077045;28;20040;-68
2022/01/25 09:53:39;;;;;;;54.47;26.95;;;;;;;4.07;72.68;102962.44;5085794;28;20495;-68
2022/01/25 09:56:07;;;;;;;54.58;26.92;;;;;;;4.11;73.30;102964.06;5087787;28;20044;-69
2022/01/25 09:58:33;;;;;;;52.40;24.67;;;;;;;4.13;72.86;102962.22;5069344;28;20048;-68
2022/01/25 10:01:01;;;;;;;49.72;25.27;;;;;;;4.12;72.89;102962.28;5085736;28;20049;-69
2022/01/25 10:03:34;;;;;;;57.35;27.05;;;;;;;4.05;73.36;102956.38;5085947;28;20496;-69
2022/01/25 10:06:02;;;;;;;53.53;27.15;;;;;;;3.94;73.90;102967.28;5073727;28;20046;-68
2022/01/25 10:08:32;;;;;;;52.70;25.83;;;;;;;4.04;73.70;102968.69;5074272;28;20040;-69
2022/01/25 10:11:02;;;;;;;49.20;26.23;;;;;;;4.04;73.52;102963.41;5088859;28;20404;-69
2022/01/25 10:13:33;;;;;;;53.10;25.88;;;;;;;3.80;73.51;102965.19;5083693;28;20067;-68
2022/01/25 10:16:04;;;;;;;52.72;25.67;;;;;;;3.85;73.48;102965.84;5083055;28;20127;-68
2022/01/25 10:18:54;;;;;;;54.28;27.15;;;;;;;3.87;73.36;102968.44;5090098;28;20036;-68
2022/01/25 10:21:28;;;;;;;49.45;25.08;;;;;;;3.76;74.21;102970.59;5086602;28;20060;-68
2022/01/25 10:24:17;;;;;;;57.95;26.20;;;;;;;3.92;73.76;102966.50;5074197;28;20044;-69
2022/01/25 10:26:58;;;;;;;54.13;26.48;;;;;;;3.93;73.60;102969.97;5088251;28;20522;-69
2022/01/25 10:29:34;;;;;;;51.40;26.00;;;;;;;3.93;73.72;102977.84;5090511;28;20044;-69
2022/01/25 10:32:05;;;;;;;57.28;26.33;;;;;;;3.98;73.26;102974.16;5077810;28;20393;-69
2022/01/25 10:34:39;;;;;;;53.85;25.98;;;;;;;4.03;73.09;102979.22;5089310;28;20042;-69
2022/01/25 10:37:09;;;;;;;59.47;26.15;;;;;;;3.79;74.01;102981.00;5081194;28;20046;-69
2022/01/25 10:39:40;;;;;;;64.10;27.02;;;;;;;3.80;73.68;102987.94;5076534;28;20093;-69
2022/01/25 10:42:11;;;;;;;52.75;25.58;;;;;;;3.97;73.80;102974.22;5084891;28;20040;-68
2022/01/25 10:44:56;;;;;;;58.55;26.42;;;;;;;4.01;73.36;102974.03;5035179;28;20377;-68
2022/01/25 10:47:46;;;;;;;64.32;26.70;;;;;;;4.04;73.91;102971.31;5097391;28;20130;-68
2022/01/25 10:50:21;;;;;;;47.83;22.90;;;;;;;4.12;73.65;102965.75;5082192;28;20044;-68
2022/01/25 10:53:04;;;;;;;53.35;26.15;;;;;;;4.04;73.85;102965.19;5085917;28;20044;-68
2022/01/25 10:55:49;;;;;;;51.17;25.75;;;;;;;4.11;73.14;102963.19;5065985;28;20392;-68
2022/01/25 10:58:17;;;;;;;56.40;26.15;;;;;;;4.06;73.52;102962.50;5087705;28;20085;-69
2022/01/25 11:00:47;;;;;;;52.90;24.50;;;;;;;4.01;73.77;102955.66;5088303;28;20043;-68
2022/01/25 11:03:36;;;;;;;54.40;25.52;;;;;;;3.96;73.73;102956.72;5038078;28;20040;-68
2022/01/25 11:06:20;;;;;;;59.10;25.75;;;;;;;3.82;74.40;102963.34;5072273;28;20039;-68
2022/01/25 11:08:53;;;;;;;52.20;24.83;;;;;;;3.69;74.25;102956.81;5085829;28;20559;-69
2022/01/25 11:11:27;;;;;;;65.18;26.63;;;;;;;3.75;74.65;102955.75;5065659;28;20036;-68
2022/01/25 11:13:56;;;;;;;59.20;26.60;;;;;;;3.92;74.24;102961.25;5075266;28;20047;-68
2022/01/25 11:16:22;;;;;;;55.45;25.77;;;;;;;3.79;74.32;102957.38;5091869;28;20044;-68
2022/01/25 11:18:51;;;;;;;56.58;27.40;;;;;;;4.00;73.75;102953.06;5089945;28;20124;-68
2022/01/25 11:21:19;;;;;;;57.25;26.02;;;;;;;4.09;73.41;102949.25;5100129;28;20036;-68
2022/01/25 11:23:48;;;;;;;57.85;27.70;;;;;;;4.15;73.07;102955.13;5039095;28;20044;-68
2022/01/25 11:26:15;;;;;;;52.53;26.08;;;;;;;4.25;72.63;102949.53;5002119;28;20580;-67
2022/01/25 11:28:44;;;;;;;58.30;27.45;;;;;;;4.18;72.86;102955.03;5090614;28;20032;-68
2022/01/25 11:31:19;;;;;;;54.30;26.35;;;;;;;4.24;72.73;102951.31;5090344;28;20056;-68
2022/01/25 11:33:49;;;;;;;54.63;26.13;;;;;;;4.33;71.86;102952.69;5082775;28;20097;-68
2022/01/25 11:36:17;;;;;;;48.90;25.17;;;;;;;4.19;71.56;102951.47;5092344;28;20032;-67
2022/01/25 11:38:49;;;;;;;55.60;26.33;;;;;;;4.20;72.13;102947.94;5088938;28;20063;-68
2022/01/25 11:41:22;;;;;;;55.95;26.27;;;;;;;4.08;72.17;102945.78;5070583;28;20048;-68
2022/01/25 11:44:10;;;;;;;52.67;24.60;;;;;;;4.24;72.29;102951.31;5083582;28;20049;-68
2022/01/25 11:46:40;;;;;;;55.97;24.90;;;;;;;4.09;72.04;102952.72;5092576;28;20040;-66
2022/01/25 11:49:15;;;;;;;56.80;25.67;;;;;;;4.12;72.48;102947.38;5090231;28;20087;-67
2022/01/25 11:51:42;;;;;;;49.85;24.95;;;;;;;4.20;71.99;102949.69;5088733;28;20479;-68
2022/01/25 11:54:09;;;;;;;54.90;26.15;;;;;;;3.96;72.93;102946.22;5084352;28;20046;-67
2022/01/25 11:56:39;;;;;;;51.83;25.25;;;;;;;4.07;72.69;102946.69;5090807;28;20054;-67
2022/01/25 11:59:06;;;;;;;59.25;25.75;;;;;;;3.98;73.46;102944.41;5097005;28;20384;-68
2022/01/25 12:01:34;;;;;;;58.85;26.00;;;;;;;3.95;74.09;102949.78;5061781;28;20040;-68
2022/01/25 12:04:05;;;;;;;59.08;27.10;;;;;;;4.15;73.13;102947.25;5093929;28;20035;-68
2022/01/25 12:06:38;;;;;;;60.03;26.07;;;;;;;4.08;73.97;102937.03;5082744;28;20147;-67
2022/01/25 12:09:15;;;;;;;58.45;26.05;;;;;;;4.09;73.23;102942.22;5092796;28;20506;-67
2022/01/25 12:11:58;;;;;;;58.50;25.30;;;;;;;4.16;72.91;102940.22;5084759;28;20072;-68
2022/01/25 12:14:43;;;;;;;62.47;25.10;;;;;;;4.17;72.53;102948.06;5053613;28;20400;-70
2022/01/25 12:17:16;;;;;;;55.35;23.70;;;;;;;4.04;73.16;102939.78;5083258;28;20119;-69
2022/01/25 12:19:48;;;;;;;56.50;24.00;;;;;;;3.99;73.29;102943.50;5099182;28;20047;-70
2022/01/25 12:22:39;;;;;;;61.00;26.65;;;;;;;3.79;74.21;102945.09;5083971;28;20140;-69
2022/01/25 12:28:12;;;;;;;57.95;24.60;;;;;;;3.90;74.06;102942.06;5085237;28;20370;-70
2022/01/25 12:30:41;;;;;;;58.60;25.10;;;;;;;4.04;73.49;102942.41;4943527;28;20404;-69
2022/01/25 12:33:19;;;;;;;60.42;25.63;;;;;;;3.99;73.36;102940.88;5076012;28;20037;-69
2022/01/25 12:38:43;;;;;;;68.50;26.35;;;;;;;3.77;74.56;102928.53;5090432;27;20372;-69
2022/01/25 12:41:15;;;;;;;61.25;25.35;;;;;;;3.97;74.07;102937.44;5079710;28;20493;-69
2022/01/25 12:43:45;;;;;;;62.70;26.27;;;;;;;4.03;73.34;102931.94;5063214;28;20044;-69
2022/01/25 12:46:15;;;;;;;65.32;26.45;;;;;;;4.00;73.28;102926.81;5083049;28;20044;-69
2022/01/25 12:48:46;;;;;;;64.95;26.65;;;;;;;4.16;72.88;102927.94;5085196;28;20041;-70
2022/01/25 12:51:19;;;;;;;65.57;26.05;;;;;;;4.20;72.64;102924.28;5087915;28;20048;-70
2022/01/25 12:53:48;;;;;;;68.80;27.13;;;;;;;4.16;73.00;102929.72;5093577;28;20076;-70
2022/01/25 12:56:19;;;;;;;64.40;26.85;;;;;;;4.16;72.73;102920.06;5092474;28;20040;-70
2022/01/25 12:58:50;;;;;;;69.35;28.08;;;;;;;4.17;72.97;102920.94;5086707;28;20159;-69
2022/01/25 13:01:20;;;;;;;74.97;27.27;;;;;;;4.10;72.57;102914.19;5071333;28;20040;-69